Time;durP1;ratioP1;P1;durP2;ratioP2;P2;SDS_P1;SDS_P2;PMS_P1;PMS_P2;Temp;Humidity;BMP_temperature;BMP_pressure;BME280_temperature;BME280_humidity;BME280_pressure;Samples;Min_cycle;Max_cycle;Signal;HPM_P1;HPM_P2
2023/03/20 00:00:24;;;;;;;19.30;13.73;;;11.10;99.90;;;;;;5113398;28;20534;-56
2023/03/20 00:02:52;;;;;;;18.07;14.43;;;11.10;99.90;;;;;;5113412;28;20462;-56
2023/03/20 00:05:21;;;;;;;18.63;12.97;;;11.00;99.90;;;;;;5113310;28;20810;-56
2023/03/20 00:07:49;;;;;;;17.50;13.93;;;11.00;99.90;;;;;;5113373;28;20439;-56
2023/03/20 00:10:17;;;;;;;16.97;13.93;;;10.90;99.90;;;;;;5113262;28;20479;-56
2023/03/20 00:12:45;;;;;;;18.10;13.70;;;10.90;99.90;;;;;;5112864;28;20998;-56
2023/03/20 00:15:28;;;;;;;19.27;14.07;;;10.80;99.90;;;;;;5113335;28;20455;-56
2023/03/20 00:17:56;;;;;;;20.10;15.53;;;10.70;99.90;;;;;;5113410;28;20435;-57
2023/03/20 00:20:23;;;;;;;16.80;14.07;;;10.70;99.90;;;;;;5117502;28;20455;-56
2023/03/20 00:22:50;;;;;;;21.03;15.47;;;10.70;99.90;;;;;;5117708;28;20467;-56
2023/03/20 00:25:20;;;;;;;21.30;14.97;;;10.70;99.90;;;;;;5117945;28;20451;-56
2023/03/20 00:27:48;;;;;;;18.97;15.10;;;10.70;99.90;;;;;;5117144;28;20458;-56
2023/03/20 00:30:29;;;;;;;19.97;15.23;;;10.60;99.90;;;;;;5116923;28;20482;-56
2023/03/20 00:32:58;;;;;;;20.13;14.70;;;10.60;99.90;;;;;;5116802;28;20475;-56
2023/03/20 00:35:28;;;;;;;21.70;13.90;;;10.50;99.90;;;;;;5116336;28;20477;-56
2023/03/20 00:37:55;;;;;;;19.43;13.63;;;10.50;99.90;;;;;;5116589;28;20458;-56
2023/03/20 00:40:23;;;;;;;17.50;12.90;;;10.50;99.90;;;;;;5116708;28;20463;-56
2023/03/20 00:42:53;;;;;;;17.93;14.77;;;10.50;99.90;;;;;;5116210;28;20984;-56
2023/03/20 00:45:21;;;;;;;16.30;13.67;;;10.60;99.90;;;;;;5116171;28;20450;-56
2023/03/20 00:47:50;;;;;;;19.53;13.83;;;10.60;99.90;;;;;;5116497;28;20442;-56
2023/03/20 00:50:20;;;;;;;19.57;12.97;;;10.60;99.90;;;;;;5116097;28;20995;-56
2023/03/20 00:52:47;;;;;;;17.90;13.00;;;10.70;99.90;;;;;;5115824;28;20531;-56
2023/03/20 00:55:15;;;;;;;16.20;12.87;;;10.70;99.90;;;;;;5116369;28;20438;-56
2023/03/20 00:57:45;;;;;;;16.70;13.10;;;10.60;99.90;;;;;;5116292;28;20450;-56
2023/03/20 01:00:34;;;;;;;19.00;13.60;;;10.60;99.90;;;;;;5116151;28;20443;-56
2023/03/20 01:03:01;;;;;;;18.13;13.43;;;10.60;99.70;;;;;;5116175;28;20466;-56
2023/03/20 01:05:29;;;;;;;15.43;12.57;;;10.60;99.60;;;;;;5116089;28;20439;-57
2023/03/20 01:07:56;;;;;;;18.30;13.60;;;10.60;99.40;;;;;;5115834;28;20445;-56
2023/03/20 01:10:27;;;;;;;15.13;12.40;;;10.50;99.10;;;;;;5115924;28;20486;-56
2023/03/20 01:12:56;;;;;;;16.10;12.30;;;10.50;99.00;;;;;;5116018;28;20481;-56
2023/03/20 01:15:27;;;;;;;15.77;13.10;;;10.60;99.10;;;;;;5115948;28;20446;-56
2023/03/20 01:17:54;;;;;;;16.77;13.00;;;10.50;99.20;;;;;;5115970;28;20464;-56
2023/03/20 01:20:23;;;;;;;16.67;13.20;;;10.50;99.40;;;;;;5115833;28;20550;-56
2023/03/20 01:22:52;;;;;;;18.30;14.17;;;10.50;99.40;;;;;;5115895;28;20462;-56
2023/03/20 01:25:18;;;;;;;19.40;13.77;;;10.40;99.40;;;;;;5115683;28;20466;-56
2023/03/20 01:27:49;;;;;;;18.80;13.33;;;10.40;99.70;;;;;;5115736;28;20807;-56
2023/03/20 01:30:21;;;;;;;17.83;13.13;;;10.40;99.90;;;;;;5114803;28;20550;-56
2023/03/20 01:32:48;;;;;;;17.10;12.87;;;10.40;99.90;;;;;;5115463;28;20854;-56
2023/03/20 01:35:16;;;;;;;18.73;13.20;;;10.40;99.80;;;;;;5115559;28;20447;-56
2023/03/20 01:37:43;;;;;;;21.13;14.70;;;10.40;99.80;;;;;;5115423;28;20446;-56
2023/03/20 01:40:24;;;;;;;18.87;14.40;;;10.40;99.90;;;;;;5115598;28;20431;-56
2023/03/20 01:42:52;;;;;;;17.17;12.60;;;10.40;99.60;;;;;;5115450;28;20475;-56
2023/03/20 01:45:22;;;;;;;16.40;13.07;;;10.40;99.50;;;;;;5115393;28;20454;-56
2023/03/20 01:47:50;;;;;;;18.20;12.60;;;10.40;99.50;;;;;;5115401;28;20450;-56
2023/03/20 01:50:29;;;;;;;18.67;13.30;;;10.30;99.40;;;;;;5114863;28;20987;-56
2023/03/20 01:53:10;;;;;;;17.17;11.53;;;10.30;99.30;;;;;;5115091;28;20466;-56
2023/03/20 01:55:41;;;;;;;19.20;14.30;;;10.30;99.30;;;;;;5114925;28;20911;-56
2023/03/20 01:58:14;;;;;;;20.90;14.03;;;10.20;99.40;;;;;;5115123;28;20438;-56
2023/03/20 02:00:41;;;;;;;17.00;12.27;;;10.10;99.60;;;;;;5114886;28;20487;-56
2023/03/20 02:03:09;;;;;;;19.30;13.30;;;10.00;99.70;;;;;;5114613;28;21001;-56
2023/03/20 02:05:37;;;;;;;18.17;13.07;;;9.90;99.90;;;;;;5114946;28;20447;-56
2023/03/20 02:08:16;;;;;;;15.43;12.00;;;9.90;99.90;;;;;;5114946;28;20451;-56
2023/03/20 02:10:46;;;;;;;19.13;13.77;;;9.80;99.90;;;;;;5114802;28;20876;-56
2023/03/20 02:13:14;;;;;;;20.60;14.90;;;9.80;99.90;;;;;;5116105;28;20463;-56
2023/03/20 02:15:57;;;;;;;17.27;12.63;;;9.80;99.90;;;;;;5114577;28;20455;-56
2023/03/20 02:18:25;;;;;;;17.30;12.73;;;9.70;99.90;;;;;;5112794;28;20512;-56
2023/03/20 02:21:15;;;;;;;17.30;13.00;;;9.70;99.90;;;;;;5114758;28;20454;-56
2023/03/20 02:24:04;;;;;;;18.03;13.03;;;9.70;99.90;;;;;;5114701;28;20479;-57
2023/03/20 02:26:53;;;;;;;21.30;14.57;;;9.80;99.90;;;;;;5114370;28;20924;-57
2023/03/20 02:30:02;;;;;;;18.70;13.03;;;9.80;99.90;;;;;;5114412;28;20492;-57
2023/03/20 02:33:04;;;;;;;24.00;14.90;;;9.80;99.90;;;;;;5114560;28;20463;-57
2023/03/20 02:35:57;;;;;;;24.90;14.90;;;9.70;99.90;;;;;;5080296;28;20439;-57
2023/03/20 02:38:36;;;;;;;21.00;15.10;;;9.70;99.90;;;;;;5114273;28;20450;-57
2023/03/20 02:41:09;;;;;;;24.20;15.53;;;9.70;99.90;;;;;;5114381;28;20419;-57
2023/03/20 02:43:44;;;;;;;19.83;15.10;;;9.70;99.90;;;;;;5114263;28;20488;-57
2023/03/20 02:46:19;;;;;;;20.00;14.17;;;9.60;99.90;;;;;;5114072;28;20419;-57
2023/03/20 02:48:54;;;;;;;21.57;14.60;;;9.60;99.90;;;;;;5114375;28;20431;-56
2023/03/20 02:51:26;;;;;;;21.37;14.20;;;9.70;99.90;;;;;;5114003;28;20470;-57
2023/03/20 02:54:01;;;;;;;20.13;15.10;;;9.70;99.90;;;;;;5113937;28;20980;-57
2023/03/20 02:56:35;;;;;;;19.33;14.10;;;9.80;99.90;;;;;;5114248;28;20427;-57
2023/03/20 02:59:09;;;;;;;20.47;12.90;;;9.90;99.90;;;;;;5114180;28;20434;-57
2023/03/20 03:01:41;;;;;;;18.47;13.10;;;10.00;99.90;;;;;;5114178;28;20434;-57
2023/03/20 03:04:11;;;;;;;19.83;13.90;;;10.00;99.90;;;;;;5114187;28;20524;-57
2023/03/20 03:06:42;;;;;;;20.53;13.23;;;10.00;99.90;;;;;;5113990;28;20439;-57
2023/03/20 03:09:13;;;;;;;17.30;12.20;;;10.10;99.90;;;;;;5114297;28;20423;-57
2023/03/20 03:11:54;;;;;;;17.07;13.37;;;10.10;99.90;;;;;;5114101;28;20467;-57
2023/03/20 03:14:29;;;;;;;19.50;13.90;;;10.20;99.90;;;;;;5114196;28;20471;-57
2023/03/20 03:16:57;;;;;;;19.03;14.13;;;10.20;99.90;;;;;;5116611;28;20434;-57
2023/03/20 03:19:28;;;;;;;16.83;13.40;;;10.30;99.90;;;;;;5116106;28;20447;-57
2023/03/20 03:21:55;;;;;;;17.60;13.43;;;10.40;99.90;;;;;;5116207;28;20461;-57
2023/03/20 03:24:30;;;;;;;17.67;14.17;;;10.40;99.70;;;;;;5115558;28;20458;-57
2023/03/20 03:27:00;;;;;;;17.10;12.43;;;10.40;99.50;;;;;;5115245;28;20427;-57
2023/03/20 03:29:30;;;;;;;16.80;12.83;;;10.40;99.10;;;;;;5114185;28;20958;-57
2023/03/20 03:31:58;;;;;;;16.93;11.73;;;10.20;98.80;;;;;;5113970;28;20467;-57
2023/03/20 03:34:25;;;;;;;16.20;12.40;;;10.20;99.00;;;;;;5113979;28;20455;-57
2023/03/20 03:37:01;;;;;;;18.50;13.30;;;10.00;98.90;;;;;;5113827;28;20537;-57
2023/03/20 03:39:37;;;;;;;16.70;11.93;;;10.00;99.00;;;;;;5113579;28;20454;-57
2023/03/20 03:42:09;;;;;;;17.53;12.20;;;9.90;99.70;;;;;;5113686;28;20457;-57
2023/03/20 03:44:43;;;;;;;18.23;12.30;;;9.90;99.90;;;;;;5113654;28;20427;-57
2023/03/20 03:47:15;;;;;;;16.20;12.53;;;9.90;99.90;;;;;;5113954;28;20900;-57
2023/03/20 03:49:46;;;;;;;20.63;12.20;;;9.70;99.90;;;;;;5113560;28;20427;-57
2023/03/20 03:52:20;;;;;;;15.87;11.57;;;9.60;99.90;;;;;;5113227;28;20940;-57
2023/03/20 03:54:52;;;;;;;15.07;11.07;;;9.40;99.90;;;;;;5116785;28;20431;-57
2023/03/20 03:57:24;;;;;;;19.50;12.20;;;9.40;99.90;;;;;;5117749;28;20798;-57
2023/03/20 03:59:52;;;;;;;18.50;12.23;;;9.30;99.90;;;;;;5117747;28;20423;-57
2023/03/20 04:02:20;;;;;;;17.87;12.80;;;9.30;99.90;;;;;;5117458;28;20507;-57
2023/03/20 04:04:50;;;;;;;18.57;12.10;;;9.30;99.90;;;;;;5117373;28;20821;-57
2023/03/20 04:07:17;;;;;;;16.10;11.93;;;9.30;99.90;;;;;;5117354;28;20467;-57
2023/03/20 04:09:44;;;;;;;16.73;10.93;;;9.30;99.90;;;;;;5117253;28;20472;-57
2023/03/20 04:12:32;;;;;;;16.97;10.90;;;9.30;99.90;;;;;;5117248;28;20485;-57
2023/03/20 04:14:58;;;;;;;16.97;10.80;;;9.30;99.90;;;;;;5117044;28;20450;-58
2023/03/20 04:17:25;;;;;;;18.33;11.17;;;9.30;99.90;;;;;;5116862;28;20458;-57
2023/03/20 04:19:52;;;;;;;17.37;11.20;;;9.30;99.90;;;;;;5117107;28;20450;-57
2023/03/20 04:22:19;;;;;;;18.40;12.07;;;9.30;99.90;;;;;;5116989;28;20877;-57
2023/03/20 04:24:46;;;;;;;17.37;12.77;;;9.30;99.90;;;;;;5116692;28;20959;-57
2023/03/20 04:27:14;;;;;;;19.80;12.40;;;9.40;99.90;;;;;;5117018;28;20450;-57
2023/03/20 04:29:40;;;;;;;18.23;12.37;;;9.40;99.90;;;;;;5116928;28;20443;-57
2023/03/20 04:32:07;;;;;;;20.13;12.77;;;9.50;99.90;;;;;;5116641;28;20489;-57
2023/03/20 04:34:34;;;;;;;17.10;12.30;;;9.50;99.90;;;;;;5116887;28;20454;-57
2023/03/20 04:37:01;;;;;;;16.50;12.17;;;9.60;99.90;;;;;;5116225;28;20510;-57
2023/03/20 04:39:28;;;;;;;20.30;12.90;;;9.60;99.90;;;;;;5116415;28;20859;-57
2023/03/20 04:41:55;;;;;;;19.70;10.93;;;9.70;99.90;;;;;;5116601;28;20443;-57
2023/03/20 04:44:23;;;;;;;19.07;12.17;;;9.70;99.90;;;;;;5116539;28;20490;-57
2023/03/20 04:46:49;;;;;;;17.20;11.90;;;9.70;99.90;;;;;;5116728;28;20447;-57
2023/03/20 04:49:16;;;;;;;16.00;12.00;;;9.70;99.90;;;;;;5116178;28;20940;-57
2023/03/20 04:51:43;;;;;;;19.00;12.97;;;9.80;99.90;;;;;;5116378;28;20479;-57
2023/03/20 04:54:09;;;;;;;19.03;13.00;;;9.70;99.90;;;;;;5116251;28;20494;-57
2023/03/20 04:56:36;;;;;;;16.10;11.20;;;9.70;99.90;;;;;;5116328;28;20879;-57
2023/03/20 04:59:03;;;;;;;24.23;13.27;;;9.80;99.90;;;;;;5116359;28;20450;-57
2023/03/20 05:01:31;;;;;;;21.37;13.03;;;9.80;99.90;;;;;;5116295;28;20454;-57
2023/03/20 05:03:59;;;;;;;19.80;13.77;;;9.80;99.90;;;;;;5116272;28;20462;-57
2023/03/20 05:06:26;;;;;;;19.87;13.53;;;9.80;99.90;;;;;;5114976;28;20455;-57
2023/03/20 05:08:53;;;;;;;19.27;12.97;;;9.70;99.90;;;;;;5116071;28;20446;-57
2023/03/20 05:11:20;;;;;;;25.63;14.07;;;9.80;99.90;;;;;;5115898;28;20847;-57
2023/03/20 05:13:47;;;;;;;18.40;13.17;;;9.80;99.90;;;;;;5115927;28;20467;-57
2023/03/20 05:16:13;;;;;;;22.63;14.67;;;9.80;99.90;;;;;;5115947;28;20443;-57
2023/03/20 05:18:41;;;;;;;16.87;12.70;;;9.70;99.90;;;;;;5115629;28;20976;-57
2023/03/20 05:21:09;;;;;;;20.60;12.23;;;9.70;99.90;;;;;;5115827;28;20784;-57
2023/03/20 05:23:36;;;;;;;24.23;12.60;;;9.60;99.90;;;;;;5115864;28;20467;-57
2023/03/20 05:26:02;;;;;;;19.37;12.60;;;9.40;99.90;;;;;;5115790;28;20492;-56
2023/03/20 05:28:29;;;;;;;21.17;12.97;;;9.40;99.90;;;;;;5115558;28;20443;-57
2023/03/20 05:30:56;;;;;;;21.33;13.87;;;9.30;99.90;;;;;;5115543;28;20474;-57
2023/03/20 05:33:23;;;;;;;22.57;14.00;;;9.40;99.90;;;;;;5115185;28;20995;-57
2023/03/20 05:35:51;;;;;;;19.27;13.30;;;9.40;99.90;;;;;;5115407;28;20454;-57
2023/03/20 05:38:21;;;;;;;21.93;14.10;;;9.40;99.90;;;;;;5115328;28;20458;-57
2023/03/20 05:40:48;;;;;;;20.57;13.70;;;9.40;99.90;;;;;;5115106;28;20954;-57
2023/03/20 05:43:15;;;;;;;21.00;13.77;;;9.40;99.90;;;;;;5115437;28;20471;-56
2023/03/20 05:45:42;;;;;;;20.60;13.37;;;9.50;99.90;;;;;;5115319;28;20474;-56
2023/03/20 05:48:09;;;;;;;20.33;12.93;;;9.50;99.90;;;;;;5115360;28;20450;-56
2023/03/20 05:50:35;;;;;;;21.50;12.63;;;9.60;99.90;;;;;;5115063;28;20459;-56
2023/03/20 05:53:03;;;;;;;23.97;13.03;;;9.50;99.90;;;;;;5115057;28;20466;-56
2023/03/20 05:55:31;;;;;;;19.67;12.30;;;9.50;99.90;;;;;;5115224;28;20492;-56
2023/03/20 05:57:58;;;;;;;24.00;13.00;;;9.50;99.90;;;;;;5115183;28;20451;-56
2023/03/20 06:00:25;;;;;;;16.97;11.53;;;9.50;99.90;;;;;;5114984;28;20443;-56
2023/03/20 06:02:52;;;;;;;17.00;12.23;;;9.50;99.90;;;;;;5115918;28;20502;-56
2023/03/20 06:05:19;;;;;;;17.20;10.40;;;9.60;99.90;;;;;;5114551;28;20952;-58
2023/03/20 06:07:45;;;;;;;16.47;10.47;;;9.60;99.90;;;;;;5114568;28;20449;-56
2023/03/20 06:10:13;;;;;;;16.37;11.20;;;9.60;99.90;;;;;;5114849;28;20939;-56
2023/03/20 06:12:40;;;;;;;17.20;10.30;;;9.60;99.90;;;;;;5114716;28;20483;-56
2023/03/20 06:15:08;;;;;;;13.57;9.90;;;9.70;99.90;;;;;;5114381;28;20458;-56
2023/03/20 06:17:35;;;;;;;16.00;10.60;;;9.70;99.90;;;;;;5114432;28;20445;-56
2023/03/20 06:20:01;;;;;;;19.20;10.70;;;9.70;99.90;;;;;;5114770;28;20446;-57
2023/03/20 06:22:28;;;;;;;14.27;10.40;;;9.70;99.90;;;;;;5114928;28;20462;-57
2023/03/20 06:24:56;;;;;;;15.37;9.67;;;9.80;99.90;;;;;;5115525;28;20442;-57
2023/03/20 06:27:24;;;;;;;17.40;10.27;;;9.80;99.90;;;;;;5115220;28;20451;-58
2023/03/20 06:29:51;;;;;;;14.13;9.20;;;9.80;99.90;;;;;;5114652;28;20450;-57
2023/03/20 06:32:17;;;;;;;15.30;10.20;;;9.90;99.90;;;;;;5114497;28;20474;-57
2023/03/20 06:34:44;;;;;;;15.13;8.97;;;9.90;99.90;;;;;;5114588;28;20450;-57
2023/03/20 06:37:11;;;;;;;14.67;9.00;;;9.90;99.90;;;;;;5114432;28;20447;-57
2023/03/20 06:39:37;;;;;;;14.77;8.73;;;9.90;99.90;;;;;;5113846;28;20454;-57
2023/03/20 06:42:05;;;;;;;14.70;10.00;;;10.00;99.80;;;;;;5114437;28;20492;-57
2023/03/20 06:44:33;;;;;;;21.13;10.00;;;10.00;99.50;;;;;;5114311;28;20524;-57
2023/03/20 06:47:00;;;;;;;19.27;10.13;;;10.00;99.40;;;;;;5114205;28;20451;-57
2023/03/20 06:49:26;;;;;;;23.47;10.23;;;10.00;99.20;;;;;;5113817;28;20882;-57
2023/03/20 06:51:53;;;;;;;15.57;9.10;;;10.10;99.20;;;;;;5114093;28;20487;-57
2023/03/20 06:54:20;;;;;;;16.67;9.57;;;10.10;99.10;;;;;;5114042;28;20539;-57
2023/03/20 06:56:47;;;;;;;17.03;9.93;;;10.10;99.10;;;;;;5114067;28;20442;-57
2023/03/20 06:59:14;;;;;;;21.67;9.53;;;10.10;98.90;;;;;;5114109;28;20443;-57
2023/03/20 07:01:42;;;;;;;18.27;10.20;;;10.10;99.00;;;;;;5113930;28;20530;-57
2023/03/20 07:04:08;;;;;;;14.00;9.70;;;10.00;99.00;;;;;;5113797;28;20527;-57
2023/03/20 07:06:35;;;;;;;20.30;10.03;;;9.80;99.40;;;;;;5113463;28;20457;-57
2023/03/20 07:09:03;;;;;;;16.50;9.43;;;9.80;99.90;;;;;;5113658;28;20921;-57
2023/03/20 07:11:29;;;;;;;13.33;9.07;;;9.80;99.90;;;;;;5113804;28;20854;-57
2023/03/20 07:13:58;;;;;;;14.93;8.50;;;9.80;99.90;;;;;;5113761;28;20995;-57
2023/03/20 07:16:25;;;;;;;14.33;10.90;;;9.70;99.90;;;;;;5113760;28;20443;-57
2023/03/20 07:18:53;;;;;;;16.10;8.87;;;9.70;99.90;;;;;;5113789;28;20478;-57
2023/03/20 07:21:22;;;;;;;18.40;8.87;;;9.70;99.90;;;;;;5113862;28;20948;-57
2023/03/20 07:23:49;;;;;;;11.60;8.77;;;9.70;99.90;;;;;;5113542;28;20471;-57
2023/03/20 07:26:16;;;;;;;10.60;8.03;;;9.80;99.90;;;;;;5113706;28;20454;-57
2023/03/20 07:28:42;;;;;;;12.80;8.47;;;9.80;99.90;;;;;;5114509;28;20956;-57
2023/03/20 07:31:18;;;;;;;12.47;9.07;;;9.80;99.90;;;;;;5117577;28;20454;-57
2023/03/20 07:33:44;;;;;;;10.90;7.90;;;9.90;99.90;;;;;;5117796;28;20466;-57
2023/03/20 07:36:12;;;;;;;16.93;9.30;;;10.00;99.30;;;;;;5118025;28;20442;-57
2023/03/20 07:38:39;;;;;;;12.10;9.10;;;10.10;99.00;;;;;;5117670;28;20839;-57
2023/03/20 07:41:06;;;;;;;14.67;8.77;;;10.20;98.60;;;;;;5117605;28;20940;-57
2023/03/20 07:43:33;;;;;;;13.77;8.40;;;10.30;98.30;;;;;;5117667;28;20515;-57
2023/03/20 07:46:02;;;;;;;10.40;7.03;;;10.40;98.00;;;;;;5117442;28;21066;-56
2023/03/20 07:48:29;;;;;;;13.47;7.93;;;10.40;98.00;;;;;;5117414;28;20533;-57
2023/03/20 07:50:55;;;;;;;13.43;8.07;;;10.50;97.30;;;;;;5117578;28;20454;-57
2023/03/20 07:53:24;;;;;;;13.50;9.13;;;10.60;97.20;;;;;;5117514;28;20482;-57
2023/03/20 07:55:50;;;;;;;12.77;7.67;;;10.70;96.60;;;;;;5117240;28;20835;-57
2023/03/20 07:58:17;;;;;;;14.87;8.30;;;10.70;96.50;;;;;;5117517;28;20450;-57
2023/03/20 08:00:44;;;;;;;11.90;7.70;;;10.80;96.50;;;;;;5117077;28;20966;-57
2023/03/20 08:03:11;;;;;;;15.53;7.93;;;10.90;96.60;;;;;;5117069;28;21002;-57
2023/03/20 08:05:37;;;;;;;12.20;8.13;;;11.00;96.10;;;;;;5117335;28;20813;-57
2023/03/20 08:08:05;;;;;;;12.90;7.60;;;11.20;96.10;;;;;;5117395;28;20447;-57
2023/03/20 08:10:33;;;;;;;10.73;7.83;;;11.30;95.50;;;;;;5117296;28;20451;-57
2023/03/20 08:12:59;;;;;;;14.27;8.03;;;11.30;94.60;;;;;;5116681;28;20853;-57
2023/03/20 08:15:26;;;;;;;10.60;7.63;;;11.30;95.10;;;;;;5117183;28;20478;-57
2023/03/20 08:17:53;;;;;;;11.33;7.43;;;11.30;94.70;;;;;;5116756;28;20449;-57
2023/03/20 08:20:20;;;;;;;14.60;8.27;;;11.30;94.40;;;;;;5117158;28;20827;-57
2023/03/20 08:22:48;;;;;;;11.70;7.30;;;11.20;94.60;;;;;;5116890;28;20469;-57
2023/03/20 08:25:15;;;;;;;12.27;7.60;;;11.20;94.50;;;;;;5116690;28;20985;-57
2023/03/20 08:27:43;;;;;;;18.03;9.10;;;11.10;93.90;;;;;;5116904;28;20454;-57
2023/03/20 08:30:12;;;;;;;11.37;7.80;;;11.20;94.30;;;;;;5116910;28;20500;-57
2023/03/20 08:32:39;;;;;;;14.73;8.00;;;11.10;93.40;;;;;;5116619;28;20494;-57
2023/03/20 08:35:07;;;;;;;12.20;8.20;;;11.00;93.40;;;;;;5116650;28;20446;-57
2023/03/20 08:37:34;;;;;;;13.67;6.77;;;11.10;94.20;;;;;;5116604;28;20442;-57
2023/03/20 08:40:01;;;;;;;11.10;7.00;;;11.10;94.20;;;;;;5116455;28;20431;-57
2023/03/20 08:42:28;;;;;;;12.30;7.00;;;11.30;94.00;;;;;;5116547;28;20466;-57
2023/03/20 08:44:56;;;;;;;12.33;6.70;;;11.20;92.50;;;;;;5116506;28;20461;-57
2023/03/20 08:47:22;;;;;;;13.13;7.10;;;11.20;93.00;;;;;;5116514;28;20446;-57
2023/03/20 08:49:49;;;;;;;7.50;6.70;;;11.10;93.00;;;;;;5116577;28;20443;-57
2023/03/20 08:52:16;;;;;;;12.80;6.87;;;11.20;92.70;;;;;;5116619;27;20486;-57
2023/03/20 08:54:43;;;;;;;14.40;6.87;;;11.00;92.60;;;;;;5117419;27;20458;-57
2023/03/20 08:57:09;;;;;;;13.10;6.93;;;10.90;92.30;;;;;;5116360;28;20447;-57
2023/03/20 08:59:36;;;;;;;13.97;7.40;;;10.80;92.60;;;;;;5116245;28;20450;-57
2023/03/20 09:02:04;;;;;;;10.23;6.97;;;10.80;93.20;;;;;;5116143;28;20447;-57
2023/03/20 09:04:31;;;;;;;10.73;5.80;;;10.80;93.00;;;;;;5116126;28;20593;-57
2023/03/20 09:07:00;;;;;;;12.70;7.30;;;10.60;92.50;;;;;;5116030;28;20798;-57
2023/03/20 09:09:28;;;;;;;7.83;5.60;;;10.70;93.20;;;;;;5116087;28;20538;-56
2023/03/20 09:11:55;;;;;;;11.63;6.23;;;10.70;93.20;;;;;;5115999;28;20535;-57
2023/03/20 09:14:22;;;;;;;9.70;6.23;;;10.70;91.50;;;;;;5115592;28;20502;-57
2023/03/20 09:16:49;;;;;;;12.37;5.17;;;10.70;92.40;;;;;;5115900;28;20440;-57
2023/03/20 09:19:18;;;;;;;9.00;5.77;;;10.70;91.70;;;;;;5115982;28;20813;-57
2023/03/20 09:21:45;;;;;;;8.80;4.70;;;10.80;91.90;;;;;;5117896;28;20458;-56
2023/03/20 09:24:12;;;;;;;9.30;5.10;;;10.80;91.20;;;;;;5116906;28;20831;-57
2023/03/20 09:26:38;;;;;;;12.17;5.20;;;10.70;91.60;;;;;;5116479;28;20454;-57
2023/03/20 09:29:05;;;;;;;8.67;4.80;;;10.70;91.10;;;;;;5116025;28;20447;-57
2023/03/20 09:31:33;;;;;;;9.93;4.80;;;10.70;91.20;;;;;;5115823;28;20497;-57
2023/03/20 09:33:59;;;;;;;11.23;5.23;;;10.70;91.00;;;;;;5115609;28;20467;-57
2023/03/20 09:36:27;;;;;;;8.87;4.93;;;10.70;91.10;;;;;;5115662;28;20451;-57
2023/03/20 09:38:54;;;;;;;14.73;4.43;;;10.80;90.70;;;;;;5115309;28;20466;-57
2023/03/20 09:41:22;;;;;;;9.23;5.10;;;10.80;90.80;;;;;;5115236;28;20431;-57
2023/03/20 09:44:00;;;;;;;10.80;5.40;;;10.80;90.40;;;;;;5115333;28;20569;-57
2023/03/20 09:46:38;;;;;;;8.00;4.03;;;10.80;90.90;;;;;;5115467;28;20435;-57
2023/03/20 09:49:13;;;;;;;6.63;3.63;;;10.90;89.80;;;;;;5115137;28;20824;-57
2023/03/20 09:51:46;;;;;;;9.27;4.70;;;10.90;90.30;;;;;;5096853;28;20426;-57
2023/03/20 09:54:18;;;;;;;8.90;4.77;;;11.00;90.20;;;;;;5115273;28;20470;-57
2023/03/20 09:56:45;;;;;;;7.57;4.20;;;11.10;90.20;;;;;;5115303;28;20427;-57
2023/03/20 09:59:15;;;;;;;7.93;3.80;;;11.10;88.70;;;;;;5114888;28;20455;-57
2023/03/20 10:01:48;;;;;;;10.00;3.50;;;11.10;87.50;;;;;;5115186;28;20451;-57
2023/03/20 10:04:15;;;;;;;10.03;3.80;;;11.20;86.60;;;;;;5115023;28;20462;-57
2023/03/20 10:06:43;;;;;;;7.23;3.83;;;11.10;86.50;;;;;;5114945;28;20443;-57
2023/03/20 10:09:17;;;;;;;7.30;4.27;;;11.00;86.90;;;;;;5114974;28;20442;-57
2023/03/20 10:12:02;;;;;;;7.43;4.13;;;11.00;86.40;;;;;;5114909;28;20450;-57
2023/03/20 10:14:36;;;;;;;9.73;4.70;;;11.00;88.00;;;;;;5114833;28;20473;-57
2023/03/20 10:17:17;;;;;;;7.47;4.13;;;10.90;86.50;;;;;;5115655;28;20434;-57
2023/03/20 10:19:49;;;;;;;8.70;3.90;;;10.80;87.30;;;;;;5114778;28;20441;-57
2023/03/20 10:22:24;;;;;;;9.20;4.17;;;10.70;86.90;;;;;;5114613;28;20424;-57
2023/03/20 10:24:57;;;;;;;10.00;4.93;;;10.60;87.80;;;;;;5114802;28;20495;-57
2023/03/20 10:27:26;;;;;;;9.73;3.97;;;10.60;89.70;;;;;;5114354;28;20849;-57
2023/03/20 10:30:08;;;;;;;7.70;3.90;;;10.60;89.50;;;;;;5114517;28;20447;-57
2023/03/20 10:32:42;;;;;;;9.37;4.40;;;10.60;88.30;;;;;;5114158;28;20956;-57
2023/03/20 10:35:21;;;;;;;13.93;4.73;;;10.50;89.00;;;;;;5114480;28;20433;-57
2023/03/20 10:38:08;;;;;;;6.77;4.60;;;10.50;90.20;;;;;;5114235;28;20451;-57
2023/03/20 10:40:38;;;;;;;6.97;3.90;;;10.50;90.70;;;;;;5114427;28;20449;-57
2023/03/20 10:43:11;;;;;;;7.97;3.07;;;10.50;90.40;;;;;;5114280;28;20462;-57
2023/03/20 10:45:44;;;;;;;7.97;3.20;;;10.40;90.00;;;;;;5114310;28;20463;-57
2023/03/20 10:48:23;;;;;;;6.70;3.00;;;10.30;87.80;;;;;;5114304;28;20488;-57
2023/03/20 10:50:53;;;;;;;5.50;2.77;;;10.40;87.90;;;;;;5114264;28;20499;-56
2023/03/20 10:53:28;;;;;;;6.40;3.37;;;10.30;88.30;;;;;;5113669;28;20905;-57
2023/03/20 10:55:58;;;;;;;7.80;3.37;;;10.40;90.20;;;;;;5113920;28;21022;-57
2023/03/20 10:58:27;;;;;;;4.50;2.80;;;10.50;90.40;;;;;;5114367;28;20542;-57
2023/03/20 11:00:55;;;;;;;6.90;3.53;;;10.60;90.60;;;;;;5113900;28;20442;-57
2023/03/20 11:03:24;;;;;;;7.30;3.07;;;10.60;90.00;;;;;;5113886;28;20462;-57
2023/03/20 11:05:55;;;;;;;6.53;3.43;;;10.50;89.20;;;;;;5113972;28;20443;-57
2023/03/20 11:08:25;;;;;;;7.33;3.23;;;10.50;90.20;;;;;;5113935;28;20435;-56
2023/03/20 11:11:00;;;;;;;7.10;3.60;;;10.50;91.00;;;;;;5113866;28;20446;-55
2023/03/20 11:13:30;;;;;;;9.40;3.70;;;10.40;92.00;;;;;;5113706;28;20485;-56
2023/03/20 11:16:07;;;;;;;8.77;3.63;;;10.40;92.40;;;;;;5114722;28;20439;-55
2023/03/20 11:18:34;;;;;;;11.47;3.93;;;10.40;94.00;;;;;;5113882;28;20430;-55
2023/03/20 11:21:02;;;;;;;18.77;4.20;;;10.30;93.70;;;;;;5113754;28;20446;-55
2023/03/20 11:23:33;;;;;;;10.37;3.67;;;10.30;94.20;;;;;;5113644;28;20466;-56
2023/03/20 11:26:01;;;;;;;4.33;2.90;;;10.40;94.30;;;;;;5113788;28;20439;-56
2023/03/20 11:28:33;;;;;;;4.97;2.03;;;10.50;93.40;;;;;;5113455;28;20940;-56
2023/03/20 11:31:03;;;;;;;6.10;2.40;;;10.40;93.60;;;;;;5113732;28;20443;-56
2023/03/20 11:33:30;;;;;;;8.70;2.67;;;10.20;93.00;;;;;;5113632;28;20483;-56
2023/03/20 11:35:58;;;;;;;5.43;2.53;;;10.10;93.20;;;;;;5113640;28;20450;-56
2023/03/20 11:38:25;;;;;;;6.80;3.00;;;10.10;95.20;;;;;;5113349;28;20462;-56
2023/03/20 11:40:55;;;;;;;5.33;2.33;;;10.10;95.50;;;;;;5113634;28;20449;-56
2023/03/20 11:43:24;;;;;;;4.40;3.30;;;10.20;95.70;;;;;;5113577;28;20459;-56
2023/03/20 11:45:55;;;;;;;7.13;2.40;;;10.30;93.90;;;;;;5113549;28;20820;-56
2023/03/20 11:48:23;;;;;;;5.90;3.00;;;10.30;94.10;;;;;;5113679;28;20431;-56
2023/03/20 11:50:56;;;;;;;5.60;2.50;;;10.50;94.20;;;;;;5113543;28;20480;-56
2023/03/20 11:53:27;;;;;;;8.10;2.80;;;10.60;94.50;;;;;;5113253;28;20485;-56
2023/03/20 11:56:06;;;;;;;5.57;2.57;;;10.70;94.60;;;;;;5113193;28;20427;-56
2023/03/20 11:58:33;;;;;;;13.60;3.50;;;11.00;94.90;;;;;;5113492;28;20431;-56
2023/03/20 12:01:03;;;;;;;4.40;2.33;;;11.20;93.90;;;;;;5113554;28;20443;-56
2023/03/20 12:03:45;;;;;;;9.93;3.40;;;11.30;93.70;;;;;;5113393;28;20459;-56
2023/03/20 12:06:18;;;;;;;7.50;2.93;;;11.50;92.40;;;;;;5113338;28;20427;-56
2023/03/20 12:08:50;;;;;;;4.10;2.77;;;11.50;91.70;;;;;;5113444;28;20463;-56
2023/03/20 12:11:40;;;;;;;9.47;3.30;;;11.60;91.10;;;;;;5113901;28;20431;-56
2023/03/20 12:14:16;;;;;;;5.43;2.23;;;11.50;91.60;;;;;;5113725;28;20490;-56
2023/03/20 12:16:43;;;;;;;8.80;3.00;;;11.30;91.80;;;;;;5117224;28;20418;-56
2023/03/20 12:19:16;;;;;;;9.40;2.80;;;11.30;92.80;;;;;;5117857;28;20944;-56
2023/03/20 12:21:47;;;;;;;7.10;2.83;;;11.30;92.10;;;;;;5118024;28;20900;-57
2023/03/20 12:24:25;;;;;;;14.20;2.90;;;11.40;92.10;;;;;;5117593;28;20463;-56
2023/03/20 12:27:00;;;;;;;7.10;2.90;;;11.50;92.60;;;;;;5117216;28;20438;-56
2023/03/20 12:29:31;;;;;;;5.40;2.97;;;11.60;91.90;;;;;;5117118;28;20859;-56
2023/03/20 12:32:03;;;;;;;9.03;2.90;;;11.90;92.10;;;;;;5117270;28;20431;-57
2023/03/20 12:34:36;;;;;;;7.10;2.87;;;12.20;91.40;;;;;;5116778;28;20459;-57
2023/03/20 12:37:03;;;;;;;3.00;2.40;;;12.40;90.50;;;;;;5116749;28;20427;-57
2023/03/20 12:39:35;;;;;;;6.33;2.40;;;12.60;87.90;;;;;;5116369;28;20515;-57
2023/03/20 12:42:13;;;;;;;5.27;2.40;;;12.80;87.20;;;;;;5116716;28;20523;-57
2023/03/20 12:44:47;;;;;;;5.57;2.50;;;13.00;85.20;;;;;;5116625;28;20434;-57
2023/03/20 12:47:24;;;;;;;5.90;2.20;;;13.00;83.00;;;;;;5116650;28;20431;-57
2023/03/20 12:50:01;;;;;;;6.40;3.20;;;12.80;82.50;;;;;;5116248;28;20947;-57
2023/03/20 12:52:37;;;;;;;4.67;2.17;;;12.70;83.30;;;;;;5116847;28;20467;-57